createdAt,value
2022-09-14T00:01:41.590Z,77.04
2022-09-14T00:11:47.707Z,77.30
2022-09-14T00:21:54.165Z,77.41
2022-09-14T00:32:00.119Z,77.61
2022-09-14T00:42:06.517Z,77.57
2022-09-14T00:52:12.956Z,77.88
2022-09-14T01:02:19.993Z,78.05
2022-09-14T01:12:26.022Z,78.30
2022-09-14T01:22:34.149Z,78.16
2022-09-14T01:32:40.353Z,78.14
2022-09-14T01:42:46.656Z,78.15
2022-09-14T01:52:52.821Z,78.21
2022-09-14T02:03:00.693Z,78.26
2022-09-14T02:13:06.976Z,78.50
2022-09-14T02:23:14.982Z,78.53
2022-09-14T02:33:21.387Z,78.68
2022-09-14T02:43:27.517Z,78.55
2022-09-14T02:53:33.303Z,78.48
2022-09-14T03:03:39.559Z,78.57
2022-09-14T03:13:45.850Z,78.49
2022-09-14T03:23:53.383Z,78.49
2022-09-14T03:33:59.337Z,78.48
2022-09-14T03:44:07.337Z,78.36
2022-09-14T03:54:13.442Z,78.41
2022-09-14T04:04:19.604Z,78.64
2022-09-14T04:14:25.681Z,78.43
2022-09-14T04:24:32.175Z,78.45
2022-09-14T04:34:38.002Z,79.52
2022-09-14T04:44:44.069Z,80.33
2022-09-14T04:54:49.953Z,81.58
2022-09-14T05:04:56.645Z,82.18
2022-09-14T05:15:02.973Z,82.21
2022-09-14T05:25:09.167Z,81.98
2022-09-14T05:35:15.554Z,82.16
2022-09-14T05:45:21.959Z,81.72
2022-09-14T05:55:28.611Z,81.84
2022-09-14T06:05:35.355Z,82.12
2022-09-14T06:15:41.995Z,81.83
2022-09-14T06:25:48.914Z,82.05
2022-09-14T06:35:56.111Z,81.88
2022-09-14T06:46:02.987Z,81.18
2022-09-14T06:56:09.639Z,81.08
2022-09-14T07:06:17.188Z,80.92
2022-09-14T07:16:24.364Z,82.22
2022-09-14T07:26:30.941Z,83.87
2022-09-14T07:36:38.032Z,84.80
2022-09-14T07:46:45.678Z,87.90
2022-09-14T07:56:53.024Z,88.10
2022-09-14T08:06:59.924Z,87.87
2022-09-14T08:17:06.634Z,86.21
2022-09-14T08:27:16.993Z,86.89
2022-09-14T08:37:23.844Z,86.32
2022-09-14T08:47:30.678Z,84.88
2022-09-14T08:57:37.977Z,84.02
2022-09-14T09:07:45.067Z,82.93
2022-09-14T09:17:52.666Z,83.63
2022-09-14T09:28:00.226Z,83.49
2022-09-14T09:38:06.998Z,82.69
2022-09-14T09:48:13.888Z,83.79
2022-09-14T09:58:20.953Z,82.73
2022-09-14T10:08:27.507Z,82.70
2022-09-14T10:18:34.331Z,83.79
2022-09-14T10:28:41.429Z,84.45
2022-09-14T10:38:49.099Z,84.19
2022-09-14T10:48:56.684Z,83.51
2022-09-14T10:59:04.321Z,83.29
2022-09-14T11:09:10.851Z,82.82
2022-09-14T11:19:17.395Z,82.53
2022-09-14T11:29:24.411Z,82.22
2022-09-14T11:39:31.357Z,82.19
2022-09-14T11:49:38.255Z,81.87
2022-09-14T11:59:45.137Z,81.58
2022-09-14T12:09:52.579Z,81.29
2022-09-14T12:19:58.353Z,81.00
2022-09-14T12:30:04.228Z,80.91
2022-09-14T12:40:09.996Z,80.88
2022-09-14T12:50:15.598Z,80.72
2022-09-14T13:00:21.241Z,80.72
2022-09-14T13:10:26.779Z,80.70
2022-09-14T13:20:32.708Z,80.68
2022-09-14T13:30:38.583Z,80.63
2022-09-14T13:40:45.595Z,80.80
2022-09-14T13:50:51.349Z,80.66
2022-09-14T14:00:58.969Z,80.28
2022-09-14T14:11:04.825Z,81.34
2022-09-14T14:21:12.327Z,81.96
2022-09-14T14:31:18.124Z,82.22
2022-09-14T14:41:24.492Z,82.60
2022-09-14T14:51:30.054Z,82.48
2022-09-14T15:01:37.702Z,82.68
2022-09-14T15:11:43.630Z,83.18
2022-09-14T15:21:50.016Z,84.00
2022-09-14T15:31:56.411Z,83.33
2022-09-14T15:42:02.701Z,83.15
2022-09-14T15:52:09.273Z,83.16
2022-09-14T16:02:15.293Z,82.95
2022-09-14T16:12:21.691Z,82.94
2022-09-14T16:22:27.663Z,82.93
2022-09-14T16:32:33.887Z,82.93
2022-09-14T16:42:40.374Z,82.91
2022-09-14T16:52:46.710Z,82.83
2022-09-14T17:02:52.848Z,82.93
2022-09-14T17:12:59.020Z,83.86
2022-09-14T17:23:05.416Z,85.12
2022-09-14T17:33:11.493Z,85.11
2022-09-14T17:43:17.520Z,84.82
2022-09-14T17:53:23.619Z,84.75
2022-09-14T18:03:29.834Z,84.70
2022-09-14T18:13:36.524Z,84.57
2022-09-14T18:23:42.398Z,84.96
2022-09-14T18:33:48.747Z,85.72
2022-09-14T18:43:54.622Z,85.27
2022-09-14T18:54:01.037Z,84.38
2022-09-14T19:04:06.964Z,84.20
2022-09-14T19:14:13.214Z,83.85
2022-09-14T19:24:19.404Z,85.11
2022-09-14T19:34:25.708Z,84.38
2022-09-14T19:44:32.318Z,84.03
2022-09-14T19:54:38.710Z,83.80
2022-09-14T20:04:44.760Z,83.67
2022-09-14T20:14:50.667Z,83.62
2022-09-14T20:24:56.812Z,83.63
2022-09-14T20:35:02.868Z,83.67
2022-09-14T20:45:08.908Z,82.35
2022-09-14T20:55:15.367Z,81.38
2022-09-14T21:05:21.568Z,81.64
2022-09-14T21:15:27.524Z,81.16
2022-09-14T21:25:33.172Z,80.70
2022-09-14T21:35:39.137Z,81.61
2022-09-14T21:45:45.049Z,80.40
2022-09-14T21:57:20.959Z,81.51
2022-09-14T22:07:26.045Z,81.33
2022-09-14T22:17:31.275Z,81.62
2022-09-14T22:27:36.890Z,82.16
2022-09-14T22:37:43.179Z,82.12
2022-09-14T22:47:49.649Z,83.22
2022-09-14T22:57:56.070Z,83.04
2022-09-14T23:08:02.075Z,83.06
2022-09-14T23:18:08.302Z,82.97
2022-09-14T23:28:14.441Z,82.66
2022-09-14T23:38:20.172Z,82.41
2022-09-14T23:48:25.964Z,82.71
2022-09-14T23:58:32.055Z,83.03
